UAL1940 KDEN-KSAN
Flight info
| Callsign | UAL1940 |
|---|---|
| Flight time | N/A |
| Altitude | 36000 |
| Route | BAYLR6 TEHRU PLNDL Q86 TTRUE LUCKI1 |
| Aircraft | A21N/M-SDE2E3FGHIJ1RWXY/LB1 |
Departure
| Time | 2026-05-07 17:39 |
|---|---|
| Airport | Denver International Airport (KDEN) |
Arrival
| Time | N/A |
|---|---|
| Airport | San Diego International Airport (KSAN) |
| Time | Latitude | Longitude | Altitude | Speed | Heading |
|---|---|---|---|---|---|
| 2026-05-07 17:06 | 39.85799 | -104.67677 | 5385 ft | 0 kts | 360° |
| 2026-05-07 17:26 | 39.85788 | -104.67677 | 5385 ft | 4 kts | 0° |
| 2026-05-07 17:26 | 39.85770 | -104.67677 | 5385 ft | 4 kts | 353° |
| 2026-05-07 17:27 | 39.85746 | -104.67667 | 5385 ft | 4 kts | 320° |
| 2026-05-07 17:27 | 39.85734 | -104.67641 | 5385 ft | 4 kts | 274° |
| 2026-05-07 17:27 | 39.85733 | -104.67628 | 5385 ft | 0 kts | 270° |
| 2026-05-07 17:32 | 39.85733 | -104.67638 | 5385 ft | 3 kts | 270° |
| 2026-05-07 17:32 | 39.85734 | -104.67681 | 5385 ft | 7 kts | 270° |
| 2026-05-07 17:33 | 39.85733 | -104.67755 | 5385 ft | 10 kts | 270° |
| 2026-05-07 17:33 | 39.85733 | -104.67856 | 5386 ft | 13 kts | 270° |
| 2026-05-07 17:33 | 39.85733 | -104.67981 | 5386 ft | 15 kts | 270° |
| 2026-05-07 17:33 | 39.85734 | -104.68128 | 5385 ft | 17 kts | 270° |
| 2026-05-07 17:34 | 39.85685 | -104.68199 | 5385 ft | 13 kts | 187° |
| 2026-05-07 17:34 | 39.85602 | -104.68238 | 5384 ft | 15 kts | 253° |
| 2026-05-07 17:34 | 39.85598 | -104.68371 | 5383 ft | 15 kts | 270° |
| 2026-05-07 17:34 | 39.85583 | -104.68498 | 5377 ft | 14 kts | 223° |
| 2026-05-07 17:35 | 39.85479 | -104.68515 | 5382 ft | 17 kts | 181° |
| 2026-05-07 17:35 | 39.85350 | -104.68516 | 5384 ft | 20 kts | 180° |
| 2026-05-07 17:35 | 39.85217 | -104.68535 | 5383 ft | 18 kts | 238° |
| 2026-05-07 17:35 | 39.85203 | -104.68662 | 5374 ft | 13 kts | 267° |
| 2026-05-07 17:36 | 39.85199 | -104.68787 | 5370 ft | 14 kts | 268° |
| 2026-05-07 17:36 | 39.85195 | -104.68921 | 5364 ft | 15 kts | 270° |
| 2026-05-07 17:36 | 39.85196 | -104.69066 | 5355 ft | 16 kts | 270° |
| 2026-05-07 17:36 | 39.85197 | -104.69219 | 5352 ft | 17 kts | 270° |
| 2026-05-07 17:37 | 39.85200 | -104.69378 | 5347 ft | 18 kts | 272° |
| 2026-05-07 17:37 | 39.85202 | -104.69518 | 5342 ft | 14 kts | 270° |
| 2026-05-07 17:37 | 39.85206 | -104.69634 | 5342 ft | 10 kts | 289° |
| 2026-05-07 17:37 | 39.85274 | -104.69658 | 5341 ft | 12 kts | 359° |
| 2026-05-07 17:38 | 39.85559 | -104.69657 | 5343 ft | 79 kts | 3° |
| 2026-05-07 17:38 | 39.86351 | -104.69648 | 5340 ft | 145 kts | 360° |
| 2026-05-07 17:38 | 39.87501 | -104.69634 | 5343 ft | 183 kts | 0° |
| 2026-05-07 17:38 | 39.88780 | -104.69603 | 5812 ft | 184 kts | 0° |
| 2026-05-07 17:39 | 39.90088 | -104.69638 | 6247 ft | 192 kts | 348° |
| 2026-05-07 17:39 | 39.91253 | -104.70439 | 6691 ft | 195 kts | 308° |
| 2026-05-07 17:39 | 39.91778 | -104.72129 | 6871 ft | 217 kts | 275° |
| 2026-05-07 17:39 | 39.91497 | -104.74136 | 7151 ft | 238 kts | 242° |
| 2026-05-07 17:40 | 39.90427 | -104.75917 | 7455 ft | 265 kts | 226° |
| 2026-05-07 17:40 | 39.89040 | -104.77684 | 7754 ft | 290 kts | 225° |
| 2026-05-07 17:40 | 39.87602 | -104.79470 | 8707 ft | 283 kts | 224° |
| 2026-05-07 17:40 | 39.86101 | -104.81157 | 9437 ft | 288 kts | 222° |
| 2026-05-07 17:41 | 39.84558 | -104.82828 | 10095 ft | 292 kts | 222° |
| 2026-05-07 17:41 | 39.83182 | -104.84849 | 10521 ft | 308 kts | 241° |
| 2026-05-07 17:41 | 39.82216 | -104.87419 | 10844 ft | 326 kts | 248° |
| 2026-05-07 17:41 | 39.81273 | -104.90200 | 11133 ft | 347 kts | 248° |
| 2026-05-07 17:42 | 39.80270 | -104.93114 | 11636 ft | 357 kts | 247° |
| 2026-05-07 17:42 | 39.79228 | -104.96081 | 12344 ft | 364 kts | 246° |
| 2026-05-07 17:42 | 39.78159 | -104.99081 | 13113 ft | 368 kts | 246° |
| 2026-05-07 17:42 | 39.77075 | -105.02101 | 13871 ft | 370 kts | 246° |
| 2026-05-07 17:43 | 39.75977 | -105.05149 | 14610 ft | 374 kts | 246° |
| 2026-05-07 17:43 | 39.74868 | -105.08219 | 15339 ft | 378 kts | 246° |
| 2026-05-07 17:43 | 39.73748 | -105.11318 | 16021 ft | 381 kts | 246° |
| 2026-05-07 17:43 | 39.72615 | -105.14452 | 16717 ft | 385 kts | 246° |
| 2026-05-07 17:44 | 39.71471 | -105.17609 | 17421 ft | 388 kts | 246° |
| 2026-05-07 17:44 | 39.70319 | -105.20787 | 18087 ft | 390 kts | 247° |
| 2026-05-07 17:44 | 39.69157 | -105.23993 | 18722 ft | 394 kts | 247° |
| 2026-05-07 17:44 | 39.67985 | -105.27219 | 19319 ft | 397 kts | 247° |
| 2026-05-07 17:45 | 39.66805 | -105.30468 | 19911 ft | 400 kts | 247° |
| 2026-05-07 17:45 | 39.65613 | -105.33744 | 20466 ft | 403 kts | 247° |
| 2026-05-07 17:45 | 39.64410 | -105.37049 | 21013 ft | 407 kts | 246° |
| 2026-05-07 17:45 | 39.63198 | -105.40367 | 21533 ft | 409 kts | 246° |
| 2026-05-07 17:46 | 39.61976 | -105.43717 | 22039 ft | 412 kts | 246° |
| 2026-05-07 17:46 | 39.60742 | -105.47090 | 22551 ft | 415 kts | 246° |
| 2026-05-07 17:46 | 39.59501 | -105.50482 | 23010 ft | 419 kts | 246° |
| 2026-05-07 17:46 | 39.58248 | -105.53903 | 23266 ft | 420 kts | 246° |
| 2026-05-07 17:47 | 39.56985 | -105.57344 | 23713 ft | 424 kts | 246° |
| 2026-05-07 17:47 | 39.55735 | -105.60754 | 24191 ft | 425 kts | 247° |
| 2026-05-07 17:47 | 39.54598 | -105.64351 | 24662 ft | 426 kts | 252° |
| 2026-05-07 17:47 | 39.53605 | -105.67974 | 25130 ft | 429 kts | 252° |
| 2026-05-07 17:48 | 39.52626 | -105.71577 | 25558 ft | 430 kts | 252° |
| 2026-05-07 17:48 | 39.51620 | -105.75240 | 25987 ft | 432 kts | 252° |
| 2026-05-07 17:48 | 39.50603 | -105.78914 | 26400 ft | 434 kts | 252° |
| 2026-05-07 17:48 | 39.49579 | -105.82602 | 26809 ft | 436 kts | 252° |
| 2026-05-07 17:49 | 39.48549 | -105.86302 | 27211 ft | 438 kts | 252° |
| 2026-05-07 17:49 | 39.47513 | -105.90026 | 27609 ft | 440 kts | 252° |
| 2026-05-07 17:49 | 39.46472 | -105.93758 | 27992 ft | 442 kts | 252° |
| 2026-05-07 17:49 | 39.45425 | -105.97511 | 28364 ft | 444 kts | 252° |
| 2026-05-07 17:50 | 39.44373 | -106.01273 | 28713 ft | 446 kts | 252° |
| 2026-05-07 17:50 | 39.43315 | -106.05044 | 29087 ft | 447 kts | 252° |
| 2026-05-07 17:50 | 39.42257 | -106.08813 | 29522 ft | 445 kts | 252° |
| 2026-05-07 17:50 | 39.41204 | -106.12563 | 29964 ft | 443 kts | 252° |
| 2026-05-07 17:51 | 39.40151 | -106.16300 | 30377 ft | 442 kts | 252° |
| 2026-05-07 17:51 | 39.39099 | -106.20023 | 30756 ft | 441 kts | 252° |
| 2026-05-07 17:51 | 39.38049 | -106.23744 | 31132 ft | 440 kts | 252° |
| 2026-05-07 17:51 | 39.36998 | -106.27461 | 31477 ft | 440 kts | 252° |
| 2026-05-07 17:52 | 39.35948 | -106.31169 | 31806 ft | 439 kts | 252° |
| 2026-05-07 17:52 | 39.34898 | -106.34874 | 32141 ft | 439 kts | 252° |
| 2026-05-07 17:52 | 39.33847 | -106.38572 | 32409 ft | 439 kts | 252° |
| 2026-05-07 17:52 | 39.32795 | -106.42273 | 32694 ft | 438 kts | 252° |
| 2026-05-07 17:53 | 39.31744 | -106.45965 | 32975 ft | 438 kts | 252° |
| 2026-05-07 17:53 | 39.30693 | -106.49650 | 33265 ft | 438 kts | 252° |
| 2026-05-07 17:53 | 39.29641 | -106.53336 | 33513 ft | 438 kts | 252° |
| 2026-05-07 17:53 | 39.28586 | -106.57019 | 33756 ft | 437 kts | 252° |
| 2026-05-07 17:54 | 39.27532 | -106.60696 | 34020 ft | 437 kts | 252° |
| 2026-05-07 17:54 | 39.26478 | -106.64372 | 34259 ft | 437 kts | 252° |
| 2026-05-07 17:54 | 39.25423 | -106.68048 | 34487 ft | 437 kts | 252° |
| 2026-05-07 17:54 | 39.24211 | -106.71652 | 34698 ft | 439 kts | 245° |
| 2026-05-07 17:55 | 39.22555 | -106.74975 | 34910 ft | 442 kts | 236° |
| 2026-05-07 17:55 | 39.20670 | -106.78104 | 35120 ft | 443 kts | 234° |
| 2026-05-07 17:55 | 39.18745 | -106.81208 | 35335 ft | 443 kts | 234° |
| 2026-05-07 17:55 | 39.16826 | -106.84304 | 35543 ft | 442 kts | 234° |
| 2026-05-07 17:56 | 39.14915 | -106.87410 | 35716 ft | 442 kts | 234° |
| 2026-05-07 17:56 | 39.13039 | -106.90471 | 35909 ft | 442 kts | 234° |
| 2026-05-07 17:56 | 39.11135 | -106.93575 | 36101 ft | 441 kts | 234° |
| 2026-05-07 17:56 | 39.09231 | -106.96677 | 36268 ft | 441 kts | 234° |
| 2026-05-07 17:57 | 39.06043 | -107.01869 | 36318 ft | 441 kts | 234° |
| 2026-05-07 17:57 | 39.01615 | -107.09065 | 36300 ft | 441 kts | 234° |
| 2026-05-07 17:58 | 38.97802 | -107.15246 | 36309 ft | 441 kts | 234° |
| 2026-05-07 17:58 | 38.93983 | -107.21422 | 36320 ft | 441 kts | 234° |
| 2026-05-07 17:59 | 38.90163 | -107.27596 | 36314 ft | 442 kts | 234° |
| 2026-05-07 17:59 | 38.86330 | -107.33765 | 36330 ft | 442 kts | 234° |
| 2026-05-07 18:00 | 38.82496 | -107.39929 | 36326 ft | 442 kts | 234° |
| 2026-05-07 18:00 | 38.78649 | -107.46091 | 36322 ft | 443 kts | 234° |
| 2026-05-07 18:01 | 38.74801 | -107.52257 | 36310 ft | 443 kts | 234° |
| 2026-05-07 18:01 | 38.70948 | -107.58421 | 36292 ft | 443 kts | 234° |
| 2026-05-07 18:02 | 38.65162 | -107.67669 | 36290 ft | 444 kts | 233° |
| 2026-05-07 18:03 | 38.61291 | -107.73832 | 36280 ft | 444 kts | 233° |
| 2026-05-07 18:03 | 38.57420 | -107.79987 | 36280 ft | 445 kts | 233° |
| 2026-05-07 18:04 | 38.53541 | -107.86138 | 36280 ft | 445 kts | 233° |